sensor_id;sensor_type;location;lat;lon;timestamp;P1;durP1;ratioP1;P2;durP2;ratioP2
7049;SDS011;22263;52.260;10.548;2022-12-18T00:00:27;39.30;;;24.43;;
7049;SDS011;22263;52.260;10.548;2022-12-18T00:02:56;38.50;;;24.40;;
7049;SDS011;22263;52.260;10.548;2022-12-18T00:05:26;37.60;;;24.67;;
7049;SDS011;22263;52.260;10.548;2022-12-18T00:07:55;38.03;;;24.03;;
7049;SDS011;22263;52.260;10.548;2022-12-18T00:10:24;38.93;;;23.90;;
7049;SDS011;22263;52.260;10.548;2022-12-18T00:12:57;37.80;;;24.17;;
7049;SDS011;22263;52.260;10.548;2022-12-18T00:15:33;37.43;;;23.77;;
7049;SDS011;22263;52.260;10.548;2022-12-18T00:18:05;38.20;;;24.13;;
7049;SDS011;22263;52.260;10.548;2022-12-18T00:20:40;35.47;;;23.00;;
7049;SDS011;22263;52.260;10.548;2022-12-18T00:23:09;34.33;;;23.57;;
7049;SDS011;22263;52.260;10.548;2022-12-18T00:25:38;36.53;;;22.63;;
7049;SDS011;22263;52.260;10.548;2022-12-18T00:28:09;37.03;;;24.33;;
7049;SDS011;22263;52.260;10.548;2022-12-18T00:30:38;37.43;;;23.67;;
7049;SDS011;22263;52.260;10.548;2022-12-18T00:33:08;35.97;;;22.83;;
7049;SDS011;22263;52.260;10.548;2022-12-18T00:35:37;35.83;;;23.50;;
7049;SDS011;22263;52.260;10.548;2022-12-18T00:38:06;39.43;;;23.77;;
7049;SDS011;22263;52.260;10.548;2022-12-18T00:40:38;38.03;;;23.70;;
7049;SDS011;22263;52.260;10.548;2022-12-18T00:43:10;38.63;;;23.20;;
7049;SDS011;22263;52.260;10.548;2022-12-18T00:45:37;35.60;;;22.53;;
7049;SDS011;22263;52.260;10.548;2022-12-18T00:48:07;36.90;;;23.40;;
7049;SDS011;22263;52.260;10.548;2022-12-18T00:50:36;38.53;;;23.50;;
7049;SDS011;22263;52.260;10.548;2022-12-18T00:53:05;39.13;;;24.13;;
7049;SDS011;22263;52.260;10.548;2022-12-18T00:55:34;36.63;;;22.93;;
7049;SDS011;22263;52.260;10.548;2022-12-18T00:58:02;35.73;;;22.93;;
7049;SDS011;22263;52.260;10.548;2022-12-18T01:00:33;35.03;;;23.50;;
7049;SDS011;22263;52.260;10.548;2022-12-18T01:03:02;37.07;;;24.47;;
7049;SDS011;22263;52.260;10.548;2022-12-18T01:05:32;38.20;;;23.80;;
7049;SDS011;22263;52.260;10.548;2022-12-18T01:08:01;36.60;;;23.10;;
7049;SDS011;22263;52.260;10.548;2022-12-18T01:10:30;33.77;;;22.43;;
7049;SDS011;22263;52.260;10.548;2022-12-18T01:12:59;36.40;;;23.17;;
7049;SDS011;22263;52.260;10.548;2022-12-18T01:15:33;38.90;;;24.20;;
7049;SDS011;22263;52.260;10.548;2022-12-18T01:18:02;36.90;;;23.73;;
7049;SDS011;22263;52.260;10.548;2022-12-18T01:20:31;37.70;;;24.03;;
7049;SDS011;22263;52.260;10.548;2022-12-18T01:23:00;37.23;;;23.30;;
7049;SDS011;22263;52.260;10.548;2022-12-18T01:25:29;38.50;;;24.97;;
7049;SDS011;22263;52.260;10.548;2022-12-18T01:27:58;38.70;;;25.43;;
7049;SDS011;22263;52.260;10.548;2022-12-18T01:30:28;38.03;;;24.77;;
7049;SDS011;22263;52.260;10.548;2022-12-18T01:32:59;40.87;;;24.83;;
7049;SDS011;22263;52.260;10.548;2022-12-18T01:35:28;38.47;;;23.87;;
7049;SDS011;22263;52.260;10.548;2022-12-18T01:37:57;40.87;;;24.80;;
7049;SDS011;22263;52.260;10.548;2022-12-18T01:40:27;43.13;;;25.27;;
7049;SDS011;22263;52.260;10.548;2022-12-18T01:42:56;36.90;;;24.23;;
7049;SDS011;22263;52.260;10.548;2022-12-18T01:45:26;39.60;;;24.93;;
7049;SDS011;22263;52.260;10.548;2022-12-18T01:47:57;38.10;;;24.20;;
7049;SDS011;22263;52.260;10.548;2022-12-18T01:50:30;38.50;;;25.60;;
7049;SDS011;22263;52.260;10.548;2022-12-18T01:53:02;40.10;;;24.27;;
7049;SDS011;22263;52.260;10.548;2022-12-18T01:55:35;39.13;;;24.67;;
7049;SDS011;22263;52.260;10.548;2022-12-18T01:58:06;46.00;;;26.43;;
7049;SDS011;22263;52.260;10.548;2022-12-18T02:00:35;41.17;;;25.83;;
7049;SDS011;22263;52.260;10.548;2022-12-18T02:03:07;39.60;;;25.20;;
7049;SDS011;22263;52.260;10.548;2022-12-18T02:05:39;36.80;;;24.47;;
7049;SDS011;22263;52.260;10.548;2022-12-18T02:08:16;37.07;;;23.53;;
7049;SDS011;22263;52.260;10.548;2022-12-18T02:10:52;34.40;;;24.10;;
7049;SDS011;22263;52.260;10.548;2022-12-18T02:13:33;37.80;;;24.47;;
7049;SDS011;22263;52.260;10.548;2022-12-18T02:16:12;35.93;;;23.43;;
7049;SDS011;22263;52.260;10.548;2022-12-18T02:18:50;36.57;;;23.83;;
7049;SDS011;22263;52.260;10.548;2022-12-18T02:21:28;39.43;;;24.30;;
7049;SDS011;22263;52.260;10.548;2022-12-18T02:24:13;36.17;;;23.50;;
7049;SDS011;22263;52.260;10.548;2022-12-18T02:26:55;35.67;;;23.20;;
7049;SDS011;22263;52.260;10.548;2022-12-18T02:29:29;43.40;;;24.37;;
7049;SDS011;22263;52.260;10.548;2022-12-18T02:32:02;39.50;;;23.23;;
7049;SDS011;22263;52.260;10.548;2022-12-18T02:34:38;36.67;;;23.57;;
7049;SDS011;22263;52.260;10.548;2022-12-18T02:37:13;37.40;;;23.97;;
7049;SDS011;22263;52.260;10.548;2022-12-18T02:39:47;42.23;;;24.07;;
7049;SDS011;22263;52.260;10.548;2022-12-18T02:42:20;39.40;;;23.97;;
7049;SDS011;22263;52.260;10.548;2022-12-18T02:44:51;37.57;;;23.77;;
7049;SDS011;22263;52.260;10.548;2022-12-18T02:47:24;38.33;;;23.47;;
7049;SDS011;22263;52.260;10.548;2022-12-18T02:49:58;35.00;;;23.37;;
7049;SDS011;22263;52.260;10.548;2022-12-18T02:52:34;40.10;;;23.30;;
7049;SDS011;22263;52.260;10.548;2022-12-18T02:55:18;39.10;;;23.47;;
7049;SDS011;22263;52.260;10.548;2022-12-18T02:58:01;40.10;;;25.17;;
7049;SDS011;22263;52.260;10.548;2022-12-18T03:00:37;35.23;;;23.23;;
7049;SDS011;22263;52.260;10.548;2022-12-18T03:03:12;37.60;;;21.97;;
7049;SDS011;22263;52.260;10.548;2022-12-18T03:05:47;34.23;;;22.00;;
7049;SDS011;22263;52.260;10.548;2022-12-18T03:08:19;34.47;;;22.27;;
7049;SDS011;22263;52.260;10.548;2022-12-18T03:10:55;32.87;;;22.13;;
7049;SDS011;22263;52.260;10.548;2022-12-18T03:13:34;35.10;;;22.03;;
7049;SDS011;22263;52.260;10.548;2022-12-18T03:16:10;34.73;;;21.60;;
7049;SDS011;22263;52.260;10.548;2022-12-18T03:18:45;36.17;;;21.40;;
7049;SDS011;22263;52.260;10.548;2022-12-18T03:21:16;34.40;;;21.90;;
7049;SDS011;22263;52.260;10.548;2022-12-18T03:23:50;36.40;;;21.80;;
7049;SDS011;22263;52.260;10.548;2022-12-18T03:26:26;35.20;;;21.90;;
7049;SDS011;22263;52.260;10.548;2022-12-18T03:29:04;33.53;;;21.00;;
7049;SDS011;22263;52.260;10.548;2022-12-18T03:31:40;35.70;;;21.17;;
7049;SDS011;22263;52.260;10.548;2022-12-18T03:34:17;34.33;;;21.67;;
7049;SDS011;22263;52.260;10.548;2022-12-18T03:36:52;33.77;;;20.77;;
7049;SDS011;22263;52.260;10.548;2022-12-18T03:39:22;32.63;;;21.47;;
7049;SDS011;22263;52.260;10.548;2022-12-18T03:41:56;35.77;;;20.87;;
7049;SDS011;22263;52.260;10.548;2022-12-18T03:44:39;30.90;;;20.57;;
7049;SDS011;22263;52.260;10.548;2022-12-18T03:47:13;35.70;;;20.50;;
7049;SDS011;22263;52.260;10.548;2022-12-18T03:49:46;33.40;;;20.23;;
7049;SDS011;22263;52.260;10.548;2022-12-18T03:52:20;33.17;;;19.57;;
7049;SDS011;22263;52.260;10.548;2022-12-18T03:54:56;30.63;;;19.60;;
7049;SDS011;22263;52.260;10.548;2022-12-18T03:57:30;31.80;;;19.47;;
7049;SDS011;22263;52.260;10.548;2022-12-18T04:00:06;30.23;;;18.73;;
7049;SDS011;22263;52.260;10.548;2022-12-18T04:02:51;31.17;;;19.40;;
7049;SDS011;22263;52.260;10.548;2022-12-18T04:05:29;33.70;;;19.63;;
7049;SDS011;22263;52.260;10.548;2022-12-18T04:08:01;33.43;;;19.60;;
7049;SDS011;22263;52.260;10.548;2022-12-18T04:10:34;33.53;;;20.53;;
7049;SDS011;22263;52.260;10.548;2022-12-18T04:13:04;33.63;;;21.17;;
7049;SDS011;22263;52.260;10.548;2022-12-18T04:15:37;33.70;;;20.33;;
7049;SDS011;22263;52.260;10.548;2022-12-18T04:18:11;31.67;;;19.37;;
7049;SDS011;22263;52.260;10.548;2022-12-18T04:20:42;33.90;;;20.43;;
7049;SDS011;22263;52.260;10.548;2022-12-18T04:23:11;42.37;;;22.43;;
7049;SDS011;22263;52.260;10.548;2022-12-18T04:25:40;34.70;;;20.87;;
7049;SDS011;22263;52.260;10.548;2022-12-18T04:28:15;30.43;;;19.97;;
7049;SDS011;22263;52.260;10.548;2022-12-18T04:30:46;32.07;;;20.23;;
7049;SDS011;22263;52.260;10.548;2022-12-18T04:33:15;33.03;;;20.50;;
7049;SDS011;22263;52.260;10.548;2022-12-18T04:35:44;34.33;;;21.47;;
7049;SDS011;22263;52.260;10.548;2022-12-18T04:38:13;35.33;;;20.13;;
7049;SDS011;22263;52.260;10.548;2022-12-18T04:40:43;33.87;;;20.87;;
7049;SDS011;22263;52.260;10.548;2022-12-18T04:43:20;33.43;;;20.40;;
7049;SDS011;22263;52.260;10.548;2022-12-18T04:45:51;33.00;;;20.60;;
7049;SDS011;22263;52.260;10.548;2022-12-18T04:48:20;38.37;;;22.23;;
7049;SDS011;22263;52.260;10.548;2022-12-18T04:50:50;33.00;;;20.80;;
7049;SDS011;22263;52.260;10.548;2022-12-18T04:53:22;36.73;;;22.47;;
7049;SDS011;22263;52.260;10.548;2022-12-18T04:56:01;36.03;;;22.60;;
7049;SDS011;22263;52.260;10.548;2022-12-18T04:58:31;35.13;;;21.80;;
7049;SDS011;22263;52.260;10.548;2022-12-18T05:01:02;33.60;;;21.70;;
7049;SDS011;22263;52.260;10.548;2022-12-18T05:03:31;34.07;;;21.77;;
7049;SDS011;22263;52.260;10.548;2022-12-18T05:06:00;37.80;;;22.40;;
7049;SDS011;22263;52.260;10.548;2022-12-18T05:08:29;36.63;;;21.27;;
7049;SDS011;22263;52.260;10.548;2022-12-18T05:10:58;35.53;;;21.23;;
7049;SDS011;22263;52.260;10.548;2022-12-18T05:13:28;40.17;;;22.80;;
7049;SDS011;22263;52.260;10.548;2022-12-18T05:15:58;38.80;;;21.97;;
7049;SDS011;22263;52.260;10.548;2022-12-18T05:18:29;36.67;;;21.47;;
7049;SDS011;22263;52.260;10.548;2022-12-18T05:20:58;37.57;;;21.23;;
7049;SDS011;22263;52.260;10.548;2022-12-18T05:23:28;38.30;;;21.23;;
7049;SDS011;22263;52.260;10.548;2022-12-18T05:25:58;36.77;;;21.47;;
7049;SDS011;22263;52.260;10.548;2022-12-18T05:28:30;37.93;;;21.13;;
7049;SDS011;22263;52.260;10.548;2022-12-18T05:31:02;33.00;;;20.30;;
7049;SDS011;22263;52.260;10.548;2022-12-18T05:33:34;36.00;;;21.17;;
7049;SDS011;22263;52.260;10.548;2022-12-18T05:36:05;39.57;;;21.00;;
7049;SDS011;22263;52.260;10.548;2022-12-18T05:38:36;36.47;;;20.87;;
7049;SDS011;22263;52.260;10.548;2022-12-18T05:41:07;35.73;;;20.73;;
7049;SDS011;22263;52.260;10.548;2022-12-18T05:43:38;35.13;;;19.90;;
7049;SDS011;22263;52.260;10.548;2022-12-18T05:46:11;34.87;;;21.03;;
7049;SDS011;22263;52.260;10.548;2022-12-18T05:48:44;36.83;;;20.77;;
7049;SDS011;22263;52.260;10.548;2022-12-18T05:51:14;37.17;;;21.07;;
7049;SDS011;22263;52.260;10.548;2022-12-18T05:53:45;36.70;;;21.43;;
7049;SDS011;22263;52.260;10.548;2022-12-18T05:56:16;35.60;;;19.87;;
7049;SDS011;22263;52.260;10.548;2022-12-18T05:58:46;34.03;;;20.23;;
7049;SDS011;22263;52.260;10.548;2022-12-18T06:01:16;37.33;;;21.57;;
7049;SDS011;22263;52.260;10.548;2022-12-18T06:03:49;37.20;;;22.27;;
7049;SDS011;22263;52.260;10.548;2022-12-18T06:06:18;37.27;;;20.97;;
7049;SDS011;22263;52.260;10.548;2022-12-18T06:08:50;34.93;;;21.57;;
7049;SDS011;22263;52.260;10.548;2022-12-18T06:11:21;36.90;;;20.57;;
7049;SDS011;22263;52.260;10.548;2022-12-18T06:13:52;37.17;;;22.00;;
7049;SDS011;22263;52.260;10.548;2022-12-18T06:16:25;37.87;;;20.97;;
7049;SDS011;22263;52.260;10.548;2022-12-18T06:18:57;34.80;;;20.33;;
7049;SDS011;22263;52.260;10.548;2022-12-18T06:21:27;34.33;;;20.50;;
7049;SDS011;22263;52.260;10.548;2022-12-18T06:23:58;38.37;;;21.07;;
7049;SDS011;22263;52.260;10.548;2022-12-18T06:26:28;36.07;;;21.27;;
7049;SDS011;22263;52.260;10.548;2022-12-18T06:28:57;35.03;;;19.57;;
7049;SDS011;22263;52.260;10.548;2022-12-18T06:31:27;32.73;;;19.77;;
7049;SDS011;22263;52.260;10.548;2022-12-18T06:33:58;34.87;;;21.03;;
7049;SDS011;22263;52.260;10.548;2022-12-18T06:36:27;36.47;;;20.60;;
7049;SDS011;22263;52.260;10.548;2022-12-18T06:38:56;34.33;;;20.63;;
7049;SDS011;22263;52.260;10.548;2022-12-18T06:41:25;35.90;;;19.33;;
7049;SDS011;22263;52.260;10.548;2022-12-18T06:43:54;33.70;;;20.77;;
7049;SDS011;22263;52.260;10.548;2022-12-18T06:46:25;36.97;;;21.23;;
7049;SDS011;22263;52.260;10.548;2022-12-18T06:48:54;40.77;;;22.00;;
7049;SDS011;22263;52.260;10.548;2022-12-18T06:51:26;41.13;;;20.77;;
7049;SDS011;22263;52.260;10.548;2022-12-18T06:53:55;39.50;;;21.20;;
7049;SDS011;22263;52.260;10.548;2022-12-18T06:56:24;41.47;;;20.80;;
7049;SDS011;22263;52.260;10.548;2022-12-18T06:58:53;38.50;;;21.43;;
7049;SDS011;22263;52.260;10.548;2022-12-18T07:01:22;37.43;;;21.27;;
7049;SDS011;22263;52.260;10.548;2022-12-18T07:03:52;40.20;;;21.17;;
7049;SDS011;22263;52.260;10.548;2022-12-18T07:06:22;36.73;;;21.07;;
7049;SDS011;22263;52.260;10.548;2022-12-18T07:08:55;42.07;;;22.47;;
7049;SDS011;22263;52.260;10.548;2022-12-18T07:11:24;40.37;;;22.50;;
7049;SDS011;22263;52.260;10.548;2022-12-18T07:13:53;38.67;;;21.97;;
7049;SDS011;22263;52.260;10.548;2022-12-18T07:16:29;41.90;;;21.30;;
7049;SDS011;22263;52.260;10.548;2022-12-18T07:18:58;43.13;;;21.97;;
7049;SDS011;22263;52.260;10.548;2022-12-18T07:21:29;37.97;;;20.53;;
7049;SDS011;22263;52.260;10.548;2022-12-18T07:23:59;38.83;;;22.17;;
7049;SDS011;22263;52.260;10.548;2022-12-18T07:26:28;35.63;;;19.93;;
7049;SDS011;22263;52.260;10.548;2022-12-18T07:29:00;36.30;;;20.10;;
7049;SDS011;22263;52.260;10.548;2022-12-18T07:31:29;41.03;;;22.10;;
7049;SDS011;22263;52.260;10.548;2022-12-18T07:33:58;38.60;;;20.90;;
7049;SDS011;22263;52.260;10.548;2022-12-18T07:36:32;36.33;;;19.90;;
7049;SDS011;22263;52.260;10.548;2022-12-18T07:39:02;36.13;;;20.60;;
7049;SDS011;22263;52.260;10.548;2022-12-18T07:41:30;137.03;;;71.23;;
7049;SDS011;22263;52.260;10.548;2022-12-18T07:44:08;66.10;;;35.17;;
7049;SDS011;22263;52.260;10.548;2022-12-18T07:46:38;45.77;;;24.07;;
7049;SDS011;22263;52.260;10.548;2022-12-18T07:49:25;37.67;;;22.30;;
7049;SDS011;22263;52.260;10.548;2022-12-18T07:51:56;37.80;;;21.17;;
7049;SDS011;22263;52.260;10.548;2022-12-18T07:54:57;39.13;;;20.77;;
7049;SDS011;22263;52.260;10.548;2022-12-18T07:57:34;37.17;;;20.93;;
7049;SDS011;22263;52.260;10.548;2022-12-18T08:00:30;39.63;;;21.53;;
7049;SDS011;22263;52.260;10.548;2022-12-18T08:02:59;41.87;;;20.77;;
7049;SDS011;22263;52.260;10.548;2022-12-18T08:05:29;40.20;;;20.83;;
7049;SDS011;22263;52.260;10.548;2022-12-18T08:08:01;40.00;;;20.23;;
7049;SDS011;22263;52.260;10.548;2022-12-18T08:10:40;35.33;;;20.07;;
7049;SDS011;22263;52.260;10.548;2022-12-18T08:13:34;37.47;;;21.67;;
7049;SDS011;22263;52.260;10.548;2022-12-18T08:16:08;36.70;;;20.87;;
7049;SDS011;22263;52.260;10.548;2022-12-18T08:18:37;40.77;;;21.70;;
7049;SDS011;22263;52.260;10.548;2022-12-18T08:21:07;41.63;;;22.30;;
7049;SDS011;22263;52.260;10.548;2022-12-18T08:23:39;39.03;;;21.67;;
7049;SDS011;22263;52.260;10.548;2022-12-18T08:26:10;37.30;;;19.87;;
7049;SDS011;22263;52.260;10.548;2022-12-18T08:28:40;34.57;;;19.87;;
7049;SDS011;22263;52.260;10.548;2022-12-18T08:31:09;36.77;;;19.37;;
7049;SDS011;22263;52.260;10.548;2022-12-18T08:33:39;32.53;;;19.60;;
7049;SDS011;22263;52.260;10.548;2022-12-18T08:36:09;38.07;;;20.77;;
7049;SDS011;22263;52.260;10.548;2022-12-18T08:38:41;30.30;;;18.87;;
7049;SDS011;22263;52.260;10.548;2022-12-18T08:41:10;33.53;;;17.90;;
7049;SDS011;22263;52.260;10.548;2022-12-18T08:43:40;32.27;;;17.77;;
7049;SDS011;22263;52.260;10.548;2022-12-18T08:46:23;30.67;;;17.93;;
7049;SDS011;22263;52.260;10.548;2022-12-18T08:48:54;29.37;;;17.97;;
7049;SDS011;22263;52.260;10.548;2022-12-18T08:51:23;30.07;;;17.13;;
7049;SDS011;22263;52.260;10.548;2022-12-18T08:53:54;29.13;;;17.57;;
7049;SDS011;22263;52.260;10.548;2022-12-18T08:56:23;29.27;;;16.63;;
7049;SDS011;22263;52.260;10.548;2022-12-18T08:58:52;32.83;;;18.33;;
7049;SDS011;22263;52.260;10.548;2022-12-18T09:01:22;26.27;;;16.27;;
7049;SDS011;22263;52.260;10.548;2022-12-18T09:03:52;38.97;;;21.77;;
7049;SDS011;22263;52.260;10.548;2022-12-18T09:06:21;41.43;;;23.10;;
7049;SDS011;22263;52.260;10.548;2022-12-18T09:08:54;28.03;;;17.47;;
7049;SDS011;22263;52.260;10.548;2022-12-18T09:11:24;28.30;;;17.80;;
7049;SDS011;22263;52.260;10.548;2022-12-18T09:13:55;39.47;;;22.27;;
7049;SDS011;22263;52.260;10.548;2022-12-18T09:16:26;29.97;;;17.77;;
7049;SDS011;22263;52.260;10.548;2022-12-18T09:18:58;25.37;;;15.47;;
7049;SDS011;22263;52.260;10.548;2022-12-18T09:21:28;24.87;;;14.63;;
7049;SDS011;22263;52.260;10.548;2022-12-18T09:24:05;24.07;;;14.87;;
7049;SDS011;22263;52.260;10.548;2022-12-18T09:26:35;23.13;;;14.40;;
7049;SDS011;22263;52.260;10.548;2022-12-18T09:29:04;21.40;;;14.50;;
7049;SDS011;22263;52.260;10.548;2022-12-18T09:31:35;19.33;;;14.07;;
7049;SDS011;22263;52.260;10.548;2022-12-18T09:34:09;23.10;;;13.17;;
7049;SDS011;22263;52.260;10.548;2022-12-18T09:36:38;20.67;;;14.13;;
7049;SDS011;22263;52.260;10.548;2022-12-18T09:39:11;24.13;;;15.53;;
7049;SDS011;22263;52.260;10.548;2022-12-18T09:41:41;26.33;;;17.93;;
7049;SDS011;22263;52.260;10.548;2022-12-18T09:44:18;25.40;;;15.63;;
7049;SDS011;22263;52.260;10.548;2022-12-18T09:46:56;31.50;;;20.33;;
7049;SDS011;22263;52.260;10.548;2022-12-18T09:49:34;23.50;;;16.60;;
7049;SDS011;22263;52.260;10.548;2022-12-18T09:52:08;20.97;;;13.83;;
7049;SDS011;22263;52.260;10.548;2022-12-18T09:54:43;19.20;;;12.97;;
7049;SDS011;22263;52.260;10.548;2022-12-18T09:57:15;20.43;;;12.37;;
7049;SDS011;22263;52.260;10.548;2022-12-18T09:59:48;18.33;;;12.20;;
7049;SDS011;22263;52.260;10.548;2022-12-18T10:02:22;17.73;;;11.60;;
7049;SDS011;22263;52.260;10.548;2022-12-18T10:04:59;19.57;;;12.80;;
7049;SDS011;22263;52.260;10.548;2022-12-18T10:07:34;20.63;;;12.33;;
7049;SDS011;22263;52.260;10.548;2022-12-18T10:10:16;18.07;;;12.40;;
7049;SDS011;22263;52.260;10.548;2022-12-18T10:12:56;19.67;;;12.27;;
7049;SDS011;22263;52.260;10.548;2022-12-18T10:15:36;18.83;;;12.13;;
7049;SDS011;22263;52.260;10.548;2022-12-18T10:18:16;18.03;;;11.50;;
7049;SDS011;22263;52.260;10.548;2022-12-18T10:20:55;18.40;;;12.10;;
7049;SDS011;22263;52.260;10.548;2022-12-18T10:23:28;19.20;;;11.07;;
7049;SDS011;22263;52.260;10.548;2022-12-18T10:26:15;19.63;;;11.37;;
7049;SDS011;22263;52.260;10.548;2022-12-18T10:28:48;17.30;;;11.37;;
7049;SDS011;22263;52.260;10.548;2022-12-18T10:31:19;16.00;;;10.87;;
7049;SDS011;22263;52.260;10.548;2022-12-18T10:33:53;14.73;;;10.40;;
7049;SDS011;22263;52.260;10.548;2022-12-18T10:36:25;15.40;;;10.73;;
7049;SDS011;22263;52.260;10.548;2022-12-18T10:38:56;15.63;;;10.53;;
7049;SDS011;22263;52.260;10.548;2022-12-18T10:41:47;19.23;;;11.17;;
7049;SDS011;22263;52.260;10.548;2022-12-18T10:44:18;19.40;;;12.40;;
7049;SDS011;22263;52.260;10.548;2022-12-18T10:46:49;19.30;;;12.00;;
7049;SDS011;22263;52.260;10.548;2022-12-18T10:49:23;22.97;;;14.43;;
7049;SDS011;22263;52.260;10.548;2022-12-18T10:52:04;17.53;;;12.40;;
7049;SDS011;22263;52.260;10.548;2022-12-18T10:54:37;22.80;;;12.83;;
7049;SDS011;22263;52.260;10.548;2022-12-18T10:57:33;22.40;;;12.97;;
7049;SDS011;22263;52.260;10.548;2022-12-18T11:03:00;22.57;;;13.43;;
7049;SDS011;22263;52.260;10.548;2022-12-18T11:05:31;21.50;;;13.37;;
7049;SDS011;22263;52.260;10.548;2022-12-18T11:08:02;21.20;;;14.00;;
7049;SDS011;22263;52.260;10.548;2022-12-18T11:10:32;21.33;;;13.40;;
7049;SDS011;22263;52.260;10.548;2022-12-18T11:15:56;22.10;;;13.80;;
7049;SDS011;22263;52.260;10.548;2022-12-18T11:18:27;19.67;;;13.17;;
7049;SDS011;22263;52.260;10.548;2022-12-18T11:20:58;19.93;;;12.87;;
7049;SDS011;22263;52.260;10.548;2022-12-18T11:23:34;19.43;;;14.00;;
7049;SDS011;22263;52.260;10.548;2022-12-18T11:26:04;20.97;;;12.07;;
7049;SDS011;22263;52.260;10.548;2022-12-18T11:28:37;19.90;;;12.93;;
7049;SDS011;22263;52.260;10.548;2022-12-18T11:31:10;18.17;;;11.67;;
7049;SDS011;22263;52.260;10.548;2022-12-18T11:33:50;19.43;;;11.70;;
7049;SDS011;22263;52.260;10.548;2022-12-18T11:36:49;16.33;;;11.03;;
7049;SDS011;22263;52.260;10.548;2022-12-18T11:39:19;19.47;;;10.93;;
7049;SDS011;22263;52.260;10.548;2022-12-18T11:41:56;14.10;;;10.03;;
7049;SDS011;22263;52.260;10.548;2022-12-18T11:44:43;18.47;;;11.47;;
7049;SDS011;22263;52.260;10.548;2022-12-18T11:47:21;17.60;;;10.97;;
7049;SDS011;22263;52.260;10.548;2022-12-18T11:49:55;16.17;;;10.47;;
7049;SDS011;22263;52.260;10.548;2022-12-18T11:52:29;18.50;;;10.23;;
7049;SDS011;22263;52.260;10.548;2022-12-18T11:55:04;15.93;;;9.57;;
7049;SDS011;22263;52.260;10.548;2022-12-18T11:57:42;17.90;;;10.30;;
7049;SDS011;22263;52.260;10.548;2022-12-18T12:00:26;15.43;;;9.33;;
7049;SDS011;22263;52.260;10.548;2022-12-18T12:03:06;13.80;;;9.77;;
7049;SDS011;22263;52.260;10.548;2022-12-18T12:05:51;15.87;;;9.87;;
7049;SDS011;22263;52.260;10.548;2022-12-18T12:08:33;15.33;;;9.67;;
7049;SDS011;22263;52.260;10.548;2022-12-18T12:11:12;14.80;;;9.43;;
7049;SDS011;22263;52.260;10.548;2022-12-18T12:13:52;16.87;;;10.37;;
7049;SDS011;22263;52.260;10.548;2022-12-18T12:16:33;15.10;;;9.40;;
7049;SDS011;22263;52.260;10.548;2022-12-18T12:19:15;13.63;;;9.20;;
7049;SDS011;22263;52.260;10.548;2022-12-18T12:21:58;13.23;;;9.33;;
7049;SDS011;22263;52.260;10.548;2022-12-18T12:24:35;14.37;;;10.10;;
7049;SDS011;22263;52.260;10.548;2022-12-18T12:27:17;15.23;;;9.77;;
7049;SDS011;22263;52.260;10.548;2022-12-18T12:29:56;16.87;;;8.90;;
7049;SDS011;22263;52.260;10.548;2022-12-18T12:32:45;13.23;;;9.20;;
7049;SDS011;22263;52.260;10.548;2022-12-18T12:35:31;15.10;;;9.97;;
7049;SDS011;22263;52.260;10.548;2022-12-18T12:38:11;12.77;;;9.40;;
7049;SDS011;22263;52.260;10.548;2022-12-18T12:40:44;14.03;;;9.50;;
7049;SDS011;22263;52.260;10.548;2022-12-18T12:43:30;13.93;;;9.53;;
7049;SDS011;22263;52.260;10.548;2022-12-18T12:46:05;13.97;;;8.37;;
7049;SDS011;22263;52.260;10.548;2022-12-18T12:48:40;12.20;;;8.70;;
7049;SDS011;22263;52.260;10.548;2022-12-18T12:51:14;12.70;;;8.67;;
7049;SDS011;22263;52.260;10.548;2022-12-18T12:53:46;16.83;;;8.97;;
7049;SDS011;22263;52.260;10.548;2022-12-18T12:56:15;12.47;;;8.00;;
7049;SDS011;22263;52.260;10.548;2022-12-18T12:58:54;11.83;;;8.43;;
7049;SDS011;22263;52.260;10.548;2022-12-18T13:01:34;13.23;;;7.80;;
7049;SDS011;22263;52.260;10.548;2022-12-18T13:04:15;12.03;;;7.93;;
7049;SDS011;22263;52.260;10.548;2022-12-18T13:06:53;12.53;;;7.80;;
7049;SDS011;22263;52.260;10.548;2022-12-18T13:09:29;12.97;;;7.77;;
7049;SDS011;22263;52.260;10.548;2022-12-18T13:12:04;12.50;;;7.70;;
7049;SDS011;22263;52.260;10.548;2022-12-18T13:14:53;13.07;;;7.40;;
7049;SDS011;22263;52.260;10.548;2022-12-18T13:17:29;10.67;;;7.07;;
7049;SDS011;22263;52.260;10.548;2022-12-18T13:20:08;12.80;;;7.57;;
7049;SDS011;22263;52.260;10.548;2022-12-18T13:22:43;14.70;;;7.83;;
7049;SDS011;22263;52.260;10.548;2022-12-18T13:28:08;10.90;;;7.60;;
7049;SDS011;22263;52.260;10.548;2022-12-18T13:30:44;13.00;;;7.83;;
7049;SDS011;22263;52.260;10.548;2022-12-18T13:36:40;13.80;;;9.13;;
7049;SDS011;22263;52.260;10.548;2022-12-18T13:39:10;14.17;;;9.10;;
7049;SDS011;22263;52.260;10.548;2022-12-18T13:48:23;16.63;;;10.83;;
7049;SDS011;22263;52.260;10.548;2022-12-18T13:50:56;18.20;;;11.93;;
7049;SDS011;22263;52.260;10.548;2022-12-18T13:53:33;28.00;;;16.87;;
7049;SDS011;22263;52.260;10.548;2022-12-18T13:56:07;21.83;;;12.60;;
7049;SDS011;22263;52.260;10.548;2022-12-18T13:58:36;25.13;;;13.23;;
7049;SDS011;22263;52.260;10.548;2022-12-18T14:01:15;20.33;;;13.40;;
7049;SDS011;22263;52.260;10.548;2022-12-18T14:03:51;22.07;;;14.00;;
7049;SDS011;22263;52.260;10.548;2022-12-18T14:06:36;27.13;;;15.30;;
7049;SDS011;22263;52.260;10.548;2022-12-18T14:09:08;21.83;;;14.83;;
7049;SDS011;22263;52.260;10.548;2022-12-18T14:11:47;25.03;;;15.93;;
7049;SDS011;22263;52.260;10.548;2022-12-18T14:14:17;23.90;;;15.67;;
7049;SDS011;22263;52.260;10.548;2022-12-18T14:16:49;22.47;;;14.87;;
7049;SDS011;22263;52.260;10.548;2022-12-18T14:19:19;26.37;;;14.77;;
7049;SDS011;22263;52.260;10.548;2022-12-18T14:21:49;21.23;;;14.80;;
7049;SDS011;22263;52.260;10.548;2022-12-18T14:24:21;22.30;;;14.43;;
7049;SDS011;22263;52.260;10.548;2022-12-18T14:26:51;22.73;;;13.33;;
7049;SDS011;22263;52.260;10.548;2022-12-18T14:29:22;22.57;;;13.87;;
7049;SDS011;22263;52.260;10.548;2022-12-18T14:32:10;19.57;;;13.13;;
7049;SDS011;22263;52.260;10.548;2022-12-18T14:34:44;20.93;;;13.27;;
7049;SDS011;22263;52.260;10.548;2022-12-18T14:37:14;19.13;;;12.70;;
7049;SDS011;22263;52.260;10.548;2022-12-18T14:39:54;17.27;;;12.60;;
7049;SDS011;22263;52.260;10.548;2022-12-18T14:42:32;22.07;;;13.37;;
7049;SDS011;22263;52.260;10.548;2022-12-18T14:48:09;18.77;;;12.73;;
7049;SDS011;22263;52.260;10.548;2022-12-18T14:50:59;19.87;;;13.23;;
7049;SDS011;22263;52.260;10.548;2022-12-18T14:53:34;22.67;;;14.13;;
7049;SDS011;22263;52.260;10.548;2022-12-18T14:56:14;21.60;;;13.93;;
7049;SDS011;22263;52.260;10.548;2022-12-18T14:58:46;31.00;;;16.67;;
7049;SDS011;22263;52.260;10.548;2022-12-18T15:01:24;31.53;;;18.53;;
7049;SDS011;22263;52.260;10.548;2022-12-18T15:03:58;24.60;;;14.40;;
7049;SDS011;22263;52.260;10.548;2022-12-18T15:06:32;19.03;;;14.17;;
7049;SDS011;22263;52.260;10.548;2022-12-18T15:09:20;21.20;;;14.03;;
7049;SDS011;22263;52.260;10.548;2022-12-18T15:11:57;20.87;;;15.00;;
7049;SDS011;22263;52.260;10.548;2022-12-18T15:14:31;21.50;;;13.93;;
7049;SDS011;22263;52.260;10.548;2022-12-18T15:17:04;20.17;;;13.37;;
7049;SDS011;22263;52.260;10.548;2022-12-18T15:19:37;15.90;;;11.00;;
7049;SDS011;22263;52.260;10.548;2022-12-18T15:22:17;18.63;;;12.57;;